USHHUSNN

Guest
Details From USHH - KHANTY MANSIYSK
To USNN - NIZHNEVARTOVSK
Flight Number -
Tags generated
Created
Modified
Stats Distance 216 nm / 399 km
Max Altitude 27,800 ft / 8,473 m
Waypoints 6
Social Downloads 7
Likes 0
Share VATSIM

Download

Looking for another format? Having issues loading an existing format? Contact us
Advertisement - Login to hide

Notes

Basic altitude profile: - Ascent Rate: 2500ft/min - Ascent Speed: 250kts - Cruise Altitude: 35000ft - Cruise Speed: 420kts - Descent Rate: 1500ft/min - Descent Speed: 250kts Options: - Use NATs: yes - Use PACOTS: yes - Use low airways: yes - Use high airways: yes

Route

USHH ZJ G484 NJC USNN

ID Type Via Altitude Latitude Longitude Leg Dist Tot Dist Heading (true) Name
O USHH APT - 0 ft / 0 m 61.02848˚ 69.08607˚ - 0 nm - KHANTY MANSIYSK
ZJ VOR - 400 ft / 122 m 61.03333˚ 69.12694˚ 1 nm 1 nm 76° / 76° KHANTY-MANSIYSK VOR-DME
SOGNA FIX G484 (AWY-LO) 19,300 ft / 5,883 m 61.01722˚ 70.94861˚ 53 nm 54 nm 90° / 92° -
KANER FIX G484 (AWY-HI) 27,800 ft / 8,473 m 61.00056˚ 71.86528˚ 26 nm 80 nm 92° / 93° -
NJC VOR G484 (AWY-LO) 19,700 ft / 6,005 m 60.94389˚ 76.46778˚ 134 nm 215 nm 89° / 93° NIZHNEVARTOVSK VOR-DME
O USNN APT - 0 ft / 0 m 60.94927˚ 76.48362˚ 0 nm 215 nm 55° / 55° NIZHNEVARTOVSK

Altitude Profile

Advertisement - Login to hide

Weather


0- 5 10 15 20 25 30 35+ Temperature / ° C

Clouds and Precipitation
Forecast for 2017-12-17 06:00 UTC. Updated an hour ago

Ground ~20,000 ft ~40,000 ft Winds

USHH

Details ICAO USHH (HMA)
Name KHANTY MANSIYSK
Region Russia
Timezone Asia/Yekaterinburg (UTC+5.0)
Stats Elevation 141 ft / 43 m (AMSL)
Location 61.028482° 69.086067°
Runways 1
Magnetic Variation 17.770° E

METAR

USHH 170630Z 19003MPS CAVOK M09/M15 Q1031 R24/350045 NOSIG RMK QFE770

Decode

TAF

TAF USHH 170200Z 1703/1803 21005G13MPS 9999 BKN015 TEMPO 1703/1710 3100 BR SCT005 BKN011 TEMPO 1710/1715 3100 -SN BLSN SCT005 BKN011

Decode

Departure Runways

ID Width Length Bearing (true) Bearing (mag) Surface Threshold Offset Overrun Length
06 148 ft / 45 m 9,154 ft / 2,790 m 75.33° 57.56° Asphalt 0 ft / 0 m 195 ft / 59 m
24 148 ft / 45 m 9,154 ft / 2,790 m 255.38° 237.61° Asphalt 0 ft / 0 m 195 ft / 59 m

USNN

Details ICAO USNN (NJC)
Name NIZHNEVARTOVSK
Region Russia
Timezone Asia/Yekaterinburg (UTC+5.0)
Stats Elevation 177 ft / 54 m (AMSL)
Location 60.949272° 76.483618°
Runways 1
Magnetic Variation 15.734° E

METAR

USNN 170630Z 23005MPS CAVOK M11/M13 Q1033 R21/31//65 NOSIG RMK QFE770

Decode

TAF

TAF USNN 170500Z 1706/1806 23003MPS CAVOK TEMPO 1706/1712 24006MPS

Decode

Destination Runways

ID Width Length Bearing (true) Bearing (mag) Surface Threshold Offset Overrun Length
03 197 ft / 60 m 10,417 ft / 3,175 m 42.34° 26.61° Asphalt 0 ft / 0 m 245 ft / 75 m
21 197 ft / 60 m 10,417 ft / 3,175 m 222.38° 206.65° Asphalt 0 ft / 0 m 245 ft / 75 m

Popular Alternatives